Terminal Aerodrome Forecast
Issued by NWS

Home | Current Version | Previous Version | Text Only | Print | Product List | Glossary On
Versions: 1 2 3 4 5 6 7 8 9 10 11 12 13 14 15 16 17
000
FTUS43 KMQT 170205 AAA
TAFIWD
TAF AMD
KIWD 170205Z 1702/1724 13005KT P6SM OVC018
     FM170800 18007KT P6SM OVC015
     FM171800 20007KT P6SM BKN020
     FM172200 22006KT P6SM BKN060=

USA.gov is the U.S. government's official web portal to all federal, state and local government web resources and services.